Terminal Aerodrome Forecast
Issued by NWS

Home | Current Version | Previous Version | Text Only | Print | Product List | Glossary On
Versions: 1 2 3 4 5 6 7 8 9 10 11 12 13 14 15 16 17 18 19 20 21 22 23 24 25 26 27 28 29 30 31 32 33 34
000
FTUS45 KGJT 011141
TAFRIL
TAF
KRIL 011141Z 0112/0212 15003KT P6SM VCSH SCT060 OVC090
      TEMPO 0112/0114 -SHRA BKN060
     FM011400 29005KT P6SM -SHRA VCTS FEW040 BKN060CB OVC080
     FM012100 29012G20KT P6SM -SHRA BKN050 OVC080
     FM020100 29010KT P6SM VCSH SCT050 BKN080
     FM020800 28007KT P6SM SCT080=

USA.gov is the U.S. government's official web portal to all federal, state and local government web resources and services.